Amiret, Minnesota
Current Conditions -  °F | °C
As of 6:33 AM on Friday 21 Nov 2014 (Local Time) from KTKC Reporting Station
Clear Clear  
Wind Chill:   Ceiling: Unl
Heat Index: 17°   Visibility: 10mi
Dew Point: 12°   Wind: 18mph
Humidity: 79%   Direction: 190°S
Pressure: 30.06"   Gusts: 24mph
Location:  44.2253°N, 95.6512°W
Report Text: KTKC 211233Z AUTO 19016G21KT 10SM CLR M08/M11 A3006 RMK AO2 T10811111
Loading
Personal Weather Stations






























Interactive Weather Map New forecast layout! Learn more

10-Day Weather Forecast

Advertisements
Track Severe Weather on mobile